sensor_id;sensor_type;location;lat;lon;timestamp;temperature;humidity
65040;HTU21D;51606;45.000;38.612;2022-07-21T03:50:14;27.69;52.36
65040;HTU21D;51606;45.000;38.612;2022-07-21T03:52:47;28.55;51.46
65040;HTU21D;51606;45.000;38.612;2022-07-21T03:55:14;29.34;50.88
65040;HTU21D;51606;45.000;38.612;2022-07-21T03:57:55;30.03;50.26
65040;HTU21D;51606;45.000;38.612;2022-07-21T04:00:26;30.79;49.73
65040;HTU21D;51606;45.000;38.612;2022-07-21T04:02:52;31.44;49.38
65040;HTU21D;51606;45.000;38.612;2022-07-21T04:05:20;32.10;48.88
65040;HTU21D;51606;45.000;38.612;2022-07-21T04:07:50;32.70;48.41
65040;HTU21D;51606;45.000;38.612;2022-07-21T04:10:20;33.25;48.04
65040;HTU21D;51606;45.000;38.612;2022-07-21T04:12:48;33.79;47.71
65040;HTU21D;51606;45.000;38.612;2022-07-21T04:15:15;34.26;47.43
65040;HTU21D;51606;45.000;38.612;2022-07-21T04:17:41;34.66;47.22
65040;HTU21D;51606;45.000;38.612;2022-07-21T04:20:10;34.98;47.01
65040;HTU21D;51606;45.000;38.612;2022-07-21T04:22:37;35.15;46.97
65040;HTU21D;51606;45.000;38.612;2022-07-21T04:25:05;34.50;48.01
65040;HTU21D;51606;45.000;38.612;2022-07-21T04:27:33;34.44;48.21
65040;HTU21D;51606;45.000;38.612;2022-07-21T04:30:00;34.76;47.67
65040;HTU21D;51606;45.000;38.612;2022-07-21T04:32:26;33.90;48.66
65040;HTU21D;51606;45.000;38.612;2022-07-21T04:34:52;32.72;50.29
65040;HTU21D;51606;45.000;38.612;2022-07-21T04:37:19;32.39;50.79
65040;HTU21D;51606;45.000;38.612;2022-07-21T04:39:45;33.07;49.63
65040;HTU21D;51606;45.000;38.612;2022-07-21T04:42:12;33.71;48.45
65040;HTU21D;51606;45.000;38.612;2022-07-21T04:44:38;33.87;48.08
65040;HTU21D;51606;45.000;38.612;2022-07-21T04:47:05;33.17;48.90
65040;HTU21D;51606;45.000;38.612;2022-07-21T04:49:34;32.38;50.05
65040;HTU21D;51606;45.000;38.612;2022-07-21T04:52:00;31.88;50.74
65040;HTU21D;51606;45.000;38.612;2022-07-21T04:54:27;32.82;49.39
65040;HTU21D;51606;45.000;38.612;2022-07-21T04:56:53;34.06;47.51
65040;HTU21D;51606;45.000;38.612;2022-07-21T04:59:21;34.99;46.41
65040;HTU21D;51606;45.000;38.612;2022-07-21T05:01:47;35.89;45.54
65040;HTU21D;51606;45.000;38.612;2022-07-21T05:04:14;36.70;44.80
65040;HTU21D;51606;45.000;38.612;2022-07-21T05:06:40;37.23;44.50
65040;HTU21D;51606;45.000;38.612;2022-07-21T05:09:07;37.76;44.19
65040;HTU21D;51606;45.000;38.612;2022-07-21T05:11:33;38.22;43.93
65040;HTU21D;51606;45.000;38.612;2022-07-21T05:13:59;0.00;43.70
65040;HTU21D;51606;45.000;38.612;2022-07-21T05:16:26;39.12;43.36
65040;HTU21D;51606;45.000;38.612;2022-07-21T05:18:52;39.56;43.08
65040;HTU21D;51606;45.000;38.612;2022-07-21T05:21:18;39.88;42.93
65040;HTU21D;51606;45.000;38.612;2022-07-21T05:23:45;40.10;42.86
65040;HTU21D;51606;45.000;38.612;2022-07-21T05:26:14;40.40;42.65
65040;HTU21D;51606;45.000;38.612;2022-07-21T05:28:40;40.51;42.65
65040;HTU21D;51606;45.000;38.612;2022-07-21T05:31:07;40.86;42.35
65040;HTU21D;51606;45.000;38.612;2022-07-21T05:33:35;41.13;42.10
65040;HTU21D;51606;45.000;38.612;2022-07-21T05:36:03;41.58;41.66
65040;HTU21D;51606;45.000;38.612;2022-07-21T05:38:30;41.98;41.35
65040;HTU21D;51606;45.000;38.612;2022-07-21T05:40:59;42.10;41.28
65040;HTU21D;51606;45.000;38.612;2022-07-21T05:43:31;42.20;41.33
65040;HTU21D;51606;45.000;38.612;2022-07-21T05:45:58;42.34;41.12
65040;HTU21D;51606;45.000;38.612;2022-07-21T05:48:24;42.28;41.23
65040;HTU21D;51606;45.000;38.612;2022-07-21T05:50:51;42.49;40.94
65040;HTU21D;51606;45.000;38.612;2022-07-21T05:53:17;42.83;40.55
65040;HTU21D;51606;45.000;38.612;2022-07-21T05:55:44;43.05;40.30
65040;HTU21D;51606;45.000;38.612;2022-07-21T07:28:41;39.05;41.43
65040;HTU21D;51606;45.000;38.612;2022-07-21T07:31:07;38.93;41.49
65040;HTU21D;51606;45.000;38.612;2022-07-21T07:33:34;38.50;42.03
65040;HTU21D;51606;45.000;38.612;2022-07-21T07:36:00;38.31;42.24
65040;HTU21D;51606;45.000;38.612;2022-07-21T07:38:26;38.20;42.27
65040;HTU21D;51606;45.000;38.612;2022-07-21T07:40:53;37.97;42.49
65040;HTU21D;51606;45.000;38.612;2022-07-21T07:43:19;37.75;42.65
65040;HTU21D;51606;45.000;38.612;2022-07-21T07:45:48;37.51;42.93
65040;HTU21D;51606;45.000;38.612;2022-07-21T07:48:14;37.66;42.68
65040;HTU21D;51606;45.000;38.612;2022-07-21T07:50:40;37.86;42.35
65040;HTU21D;51606;45.000;38.612;2022-07-21T07:53:06;37.69;42.45
65040;HTU21D;51606;45.000;38.612;2022-07-21T07:55:33;37.30;43.00
65040;HTU21D;51606;45.000;38.612;2022-07-21T07:57:59;37.43;42.81
65040;HTU21D;51606;45.000;38.612;2022-07-21T08:00:25;37.74;42.37
65040;HTU21D;51606;45.000;38.612;2022-07-21T08:02:52;38.04;42.00
65040;HTU21D;51606;45.000;38.612;2022-07-21T08:05:18;38.40;41.58
65040;HTU21D;51606;45.000;38.612;2022-07-21T08:07:44;38.77;41.15
65040;HTU21D;51606;45.000;38.612;2022-07-21T08:10:12;39.11;40.76
65040;HTU21D;51606;45.000;38.612;2022-07-21T08:12:41;38.88;41.07
65040;HTU21D;51606;45.000;38.612;2022-07-21T08:15:08;38.18;42.01
65040;HTU21D;51606;45.000;38.612;2022-07-21T08:17:36;37.38;43.01
65040;HTU21D;51606;45.000;38.612;2022-07-21T08:20:03;36.67;43.80
65040;HTU21D;51606;45.000;38.612;2022-07-21T08:22:30;35.92;44.61
65040;HTU21D;51606;45.000;38.612;2022-07-21T08:24:56;35.22;45.32
65040;HTU21D;51606;45.000;38.612;2022-07-21T08:27:25;34.67;45.79
65040;HTU21D;51606;45.000;38.612;2022-07-21T08:29:51;34.24;46.10
65040;HTU21D;51606;45.000;38.612;2022-07-21T08:32:28;33.83;46.33
65040;HTU21D;51606;45.000;38.612;2022-07-21T08:34:56;33.47;46.53
65040;HTU21D;51606;45.000;38.612;2022-07-21T08:37:22;33.23;46.60
65040;HTU21D;51606;45.000;38.612;2022-07-21T08:39:48;33.04;46.58
65040;HTU21D;51606;45.000;38.612;2022-07-21T08:42:15;32.77;46.72
65040;HTU21D;51606;45.000;38.612;2022-07-21T08:44:41;32.39;47.01
65040;HTU21D;51606;45.000;38.612;2022-07-21T08:47:08;31.95;47.41
65040;HTU21D;51606;45.000;38.612;2022-07-21T08:49:35;31.59;47.70
65040;HTU21D;51606;45.000;38.612;2022-07-21T08:52:02;31.44;47.71
65040;HTU21D;51606;45.000;38.612;2022-07-21T08:54:29;31.25;47.72
65040;HTU21D;51606;45.000;38.612;2022-07-21T08:56:58;31.02;47.83
65040;HTU21D;51606;45.000;38.612;2022-07-21T08:59:26;30.76;48.02
65040;HTU21D;51606;45.000;38.612;2022-07-21T09:01:52;30.57;48.12
65040;HTU21D;51606;45.000;38.612;2022-07-21T09:04:31;30.47;48.12
65040;HTU21D;51606;45.000;38.612;2022-07-21T09:07:07;30.30;48.17
65040;HTU21D;51606;45.000;38.612;2022-07-21T09:09:36;30.18;48.22
65040;HTU21D;51606;45.000;38.612;2022-07-21T09:12:03;30.07;48.27
65040;HTU21D;51606;45.000;38.612;2022-07-21T09:14:31;29.97;48.28
65040;HTU21D;51606;45.000;38.612;2022-07-21T09:17:00;29.88;48.34
65040;HTU21D;51606;45.000;38.612;2022-07-21T09:19:29;29.78;48.41
65040;HTU21D;51606;45.000;38.612;2022-07-21T09:22:02;29.65;48.50
65040;HTU21D;51606;45.000;38.612;2022-07-21T09:24:33;29.56;48.60
65040;HTU21D;51606;45.000;38.612;2022-07-21T09:27:10;29.56;48.57
65040;HTU21D;51606;45.000;38.612;2022-07-21T09:29:45;29.50;48.58
65040;HTU21D;51606;45.000;38.612;2022-07-21T09:32:30;29.44;48.64
65040;HTU21D;51606;45.000;38.612;2022-07-21T09:35:13;29.22;48.92
65040;HTU21D;51606;45.000;38.612;2022-07-21T09:37:41;28.91;49.40
65040;HTU21D;51606;45.000;38.612;2022-07-21T09:40:11;28.69;49.75
65040;HTU21D;51606;45.000;38.612;2022-07-21T09:42:42;28.52;49.98
65040;HTU21D;51606;45.000;38.612;2022-07-21T09:45:12;28.33;50.17
65040;HTU21D;51606;45.000;38.612;2022-07-21T09:47:39;28.14;50.40
65040;HTU21D;51606;45.000;38.612;2022-07-21T09:50:07;28.03;50.56
65040;HTU21D;51606;45.000;38.612;2022-07-21T09:52:38;27.94;50.66
65040;HTU21D;51606;45.000;38.612;2022-07-21T09:55:09;27.88;50.77
65040;HTU21D;51606;45.000;38.612;2022-07-21T09:57:36;27.86;50.75
65040;HTU21D;51606;45.000;38.612;2022-07-21T10:00:11;27.94;50.66
65040;HTU21D;51606;45.000;38.612;2022-07-21T10:02:39;28.11;50.47
65040;HTU21D;51606;45.000;38.612;2022-07-21T10:07:38;28.45;50.06
65040;HTU21D;51606;45.000;38.612;2022-07-21T10:10:06;28.55;49.99
65040;HTU21D;51606;45.000;38.612;2022-07-21T10:12:33;28.55;50.09
65040;HTU21D;51606;45.000;38.612;2022-07-21T10:15:00;28.45;50.33
65040;HTU21D;51606;45.000;38.612;2022-07-21T10:17:28;28.29;50.67
65040;HTU21D;51606;45.000;38.612;2022-07-21T10:20:06;28.18;50.88
65040;HTU21D;51606;45.000;38.612;2022-07-21T10:25:13;28.03;51.14
65040;HTU21D;51606;45.000;38.612;2022-07-21T10:30:46;28.06;51.11
65040;HTU21D;51606;45.000;38.612;2022-07-21T10:33:17;28.09;51.08
65040;HTU21D;51606;45.000;38.612;2022-07-21T10:35:48;28.14;51.06
65040;HTU21D;51606;45.000;38.612;2022-07-21T10:38:32;28.16;51.05
65040;HTU21D;51606;45.000;38.612;2022-07-21T10:41:01;28.20;50.98
65040;HTU21D;51606;45.000;38.612;2022-07-21T10:45:55;28.33;50.86
65040;HTU21D;51606;45.000;38.612;2022-07-21T10:51:08;28.37;50.92
65040;HTU21D;51606;45.000;38.612;2022-07-21T10:53:35;28.44;50.87
65040;HTU21D;51606;45.000;38.612;2022-07-21T10:56:02;28.48;50.86
65040;HTU21D;51606;45.000;38.612;2022-07-21T10:58:38;28.46;50.98
65040;HTU21D;51606;45.000;38.612;2022-07-21T11:01:23;28.41;51.08
65040;HTU21D;51606;45.000;38.612;2022-07-21T11:04:13;28.40;51.14
65040;HTU21D;51606;45.000;38.612;2022-07-21T11:06:43;28.40;51.14
65040;HTU21D;51606;45.000;38.612;2022-07-21T11:09:17;28.50;51.04
65040;HTU21D;51606;45.000;38.612;2022-07-21T11:11:58;28.61;50.92
65040;HTU21D;51606;45.000;38.612;2022-07-21T11:14:36;28.77;50.74
65040;HTU21D;51606;45.000;38.612;2022-07-21T11:17:03;28.93;50.54
65040;HTU21D;51606;45.000;38.612;2022-07-21T11:22:17;29.07;50.44
65040;HTU21D;51606;45.000;38.612;2022-07-21T11:24:46;29.15;50.39
65040;HTU21D;51606;45.000;38.612;2022-07-21T11:27:17;29.28;50.27
65040;HTU21D;51606;45.000;38.612;2022-07-21T11:29:46;29.51;50.04
65040;HTU21D;51606;45.000;38.612;2022-07-21T11:32:14;29.78;49.75
65040;HTU21D;51606;45.000;38.612;2022-07-21T11:37:26;30.02;49.63
65040;HTU21D;51606;45.000;38.612;2022-07-21T11:39:56;29.94;49.81
65040;HTU21D;51606;45.000;38.612;2022-07-21T11:42:23;29.82;50.11
65040;HTU21D;51606;45.000;38.612;2022-07-21T12:34:22;28.06;52.04
65040;HTU21D;51606;45.000;38.612;2022-07-21T12:36:50;28.05;52.08
65040;HTU21D;51606;45.000;38.612;2022-07-21T12:39:22;28.05;52.06
65040;HTU21D;51606;45.000;38.612;2022-07-21T12:42:11;28.14;51.93
65040;HTU21D;51606;45.000;38.612;2022-07-21T12:44:53;28.29;51.70
65040;HTU21D;51606;45.000;38.612;2022-07-21T12:47:22;28.47;51.49
65040;HTU21D;51606;45.000;38.612;2022-07-21T12:49:58;28.67;51.28
65040;HTU21D;51606;45.000;38.612;2022-07-21T12:52:28;28.82;51.14
65040;HTU21D;51606;45.000;38.612;2022-07-21T12:54:54;28.89;51.04
65040;HTU21D;51606;45.000;38.612;2022-07-21T12:57:21;28.88;51.15
65040;HTU21D;51606;45.000;38.612;2022-07-21T12:59:47;28.92;51.17
65040;HTU21D;51606;45.000;38.612;2022-07-21T13:02:13;29.08;51.01
65040;HTU21D;51606;45.000;38.612;2022-07-21T13:04:40;29.33;50.75
65040;HTU21D;51606;45.000;38.612;2022-07-21T13:07:06;29.54;50.48
65040;HTU21D;51606;45.000;38.612;2022-07-21T13:09:35;29.50;50.56
65040;HTU21D;51606;45.000;38.612;2022-07-21T13:12:01;29.52;50.64
65040;HTU21D;51606;45.000;38.612;2022-07-21T13:14:28;29.52;50.71
65040;HTU21D;51606;45.000;38.612;2022-07-21T13:16:54;29.50;50.79
65040;HTU21D;51606;45.000;38.612;2022-07-21T13:19:23;29.50;50.85
65040;HTU21D;51606;45.000;38.612;2022-07-21T13:21:51;29.24;51.24
65040;HTU21D;51606;45.000;38.612;2022-07-21T13:24:18;29.05;51.59
65040;HTU21D;51606;45.000;38.612;2022-07-21T13:26:45;29.06;51.55
65040;HTU21D;51606;45.000;38.612;2022-07-21T13:29:11;29.15;51.43
65040;HTU21D;51606;45.000;38.612;2022-07-21T13:31:38;29.19;51.32
65040;HTU21D;51606;45.000;38.612;2022-07-21T13:34:05;29.12;51.44
65040;HTU21D;51606;45.000;38.612;2022-07-21T13:36:34;28.86;51.82
65040;HTU21D;51606;45.000;38.612;2022-07-21T13:39:04;28.58;52.26
65040;HTU21D;51606;45.000;38.612;2022-07-21T13:41:32;28.44;52.46
65040;HTU21D;51606;45.000;38.612;2022-07-21T13:43:59;28.33;52.56
65040;HTU21D;51606;45.000;38.612;2022-07-21T13:46:26;28.32;52.47
65040;HTU21D;51606;45.000;38.612;2022-07-21T13:48:53;28.27;52.49
65040;HTU21D;51606;45.000;38.612;2022-07-21T13:51:21;28.32;52.34
65040;HTU21D;51606;45.000;38.612;2022-07-21T13:53:51;28.37;52.22
65040;HTU21D;51606;45.000;38.612;2022-07-21T13:56:18;28.43;52.09
65040;HTU21D;51606;45.000;38.612;2022-07-21T13:58:44;28.45;52.01
65040;HTU21D;51606;45.000;38.612;2022-07-21T14:01:12;28.37;52.19
65040;HTU21D;51606;45.000;38.612;2022-07-21T14:03:39;28.37;52.19
65040;HTU21D;51606;45.000;38.612;2022-07-21T14:06:05;28.25;52.31
65040;HTU21D;51606;45.000;38.612;2022-07-21T14:08:33;28.08;52.61
65040;HTU21D;51606;45.000;38.612;2022-07-21T14:10:59;27.93;52.81
65040;HTU21D;51606;45.000;38.612;2022-07-21T14:13:26;27.82;52.97
65040;HTU21D;51606;45.000;38.612;2022-07-21T14:15:53;27.74;53.04
65040;HTU21D;51606;45.000;38.612;2022-07-21T14:18:19;27.68;53.07
65040;HTU21D;51606;45.000;38.612;2022-07-21T14:20:46;27.70;53.04
65040;HTU21D;51606;45.000;38.612;2022-07-21T14:23:14;27.70;52.99
65040;HTU21D;51606;45.000;38.612;2022-07-21T14:25:41;27.71;52.97
65040;HTU21D;51606;45.000;38.612;2022-07-21T14:28:07;27.71;52.94
65040;HTU21D;51606;45.000;38.612;2022-07-21T14:30:34;27.72;52.88
65040;HTU21D;51606;45.000;38.612;2022-07-21T14:33:00;27.80;52.76
65040;HTU21D;51606;45.000;38.612;2022-07-21T14:35:26;27.83;52.66
65040;HTU21D;51606;45.000;38.612;2022-07-21T14:38:00;27.78;52.72
65040;HTU21D;51606;45.000;38.612;2022-07-21T14:40:29;27.64;52.89
65040;HTU21D;51606;45.000;38.612;2022-07-21T14:42:56;27.56;52.95
65040;HTU21D;51606;45.000;38.612;2022-07-21T14:45:23;27.55;52.89
65040;HTU21D;51606;45.000;38.612;2022-07-21T14:47:51;27.54;52.84
65040;HTU21D;51606;45.000;38.612;2022-07-21T14:50:18;27.55;52.72
65040;HTU21D;51606;45.000;38.612;2022-07-21T14:52:45;27.53;52.67
65040;HTU21D;51606;45.000;38.612;2022-07-21T14:55:11;27.50;52.64
65040;HTU21D;51606;45.000;38.612;2022-07-21T14:57:38;27.36;52.72
65040;HTU21D;51606;45.000;38.612;2022-07-21T15:00:05;27.13;52.96
65040;HTU21D;51606;45.000;38.612;2022-07-21T15:02:33;26.86;53.27
65040;HTU21D;51606;45.000;38.612;2022-07-21T15:04:59;26.58;53.51
65040;HTU21D;51606;45.000;38.612;2022-07-21T15:07:29;26.36;53.68
65040;HTU21D;51606;45.000;38.612;2022-07-21T15:09:55;26.19;53.75
65040;HTU21D;51606;45.000;38.612;2022-07-21T15:12:22;26.04;53.80
65040;HTU21D;51606;45.000;38.612;2022-07-21T15:14:48;25.90;53.81
65040;HTU21D;51606;45.000;38.612;2022-07-21T15:17:16;25.77;53.80
65040;HTU21D;51606;45.000;38.612;2022-07-21T15:19:43;25.68;53.77
65040;HTU21D;51606;45.000;38.612;2022-07-21T15:22:10;25.60;53.72
65040;HTU21D;51606;45.000;38.612;2022-07-21T15:24:37;25.56;53.62
65040;HTU21D;51606;45.000;38.612;2022-07-21T15:27:03;25.49;53.56
65040;HTU21D;51606;45.000;38.612;2022-07-21T15:29:29;25.40;53.52
65040;HTU21D;51606;45.000;38.612;2022-07-21T15:31:56;25.31;53.55
65040;HTU21D;51606;45.000;38.612;2022-07-21T15:34:22;25.19;53.58
65040;HTU21D;51606;45.000;38.612;2022-07-21T15:36:48;25.13;53.55
65040;HTU21D;51606;45.000;38.612;2022-07-21T15:39:16;25.06;53.49
65040;HTU21D;51606;45.000;38.612;2022-07-21T15:41:43;24.99;53.46
65040;HTU21D;51606;45.000;38.612;2022-07-21T15:44:09;24.92;53.40
65040;HTU21D;51606;45.000;38.612;2022-07-21T16:02:41;24.39;53.36
65040;HTU21D;51606;45.000;38.612;2022-07-21T16:05:11;24.34;53.33
65040;HTU21D;51606;45.000;38.612;2022-07-21T16:07:38;24.30;53.29
65040;HTU21D;51606;45.000;38.612;2022-07-21T16:10:05;24.29;53.24
65040;HTU21D;51606;45.000;38.612;2022-07-21T16:12:34;24.27;53.22
65040;HTU21D;51606;45.000;38.612;2022-07-21T16:15:00;24.24;53.22
65040;HTU21D;51606;45.000;38.612;2022-07-21T16:17:26;24.17;53.26
65040;HTU21D;51606;45.000;38.612;2022-07-21T16:19:55;24.11;53.30
65040;HTU21D;51606;45.000;38.612;2022-07-21T16:22:21;24.05;53.33
65040;HTU21D;51606;45.000;38.612;2022-07-21T16:24:48;23.99;53.39
65040;HTU21D;51606;45.000;38.612;2022-07-21T16:27:16;23.94;53.42
65040;HTU21D;51606;45.000;38.612;2022-07-21T16:29:42;23.85;53.49
65040;HTU21D;51606;45.000;38.612;2022-07-21T16:32:09;23.79;53.58
65040;HTU21D;51606;45.000;38.612;2022-07-21T16:34:38;23.70;53.65
65040;HTU21D;51606;45.000;38.612;2022-07-21T16:37:05;23.62;53.69
65040;HTU21D;51606;45.000;38.612;2022-07-21T16:39:33;23.54;53.76
65040;HTU21D;51606;45.000;38.612;2022-07-21T16:42:02;23.46;53.82
65040;HTU21D;51606;45.000;38.612;2022-07-21T16:44:29;23.39;53.85
65040;HTU21D;51606;45.000;38.612;2022-07-21T16:46:56;23.30;53.92
65040;HTU21D;51606;45.000;38.612;2022-07-21T16:49:23;23.22;53.97
65040;HTU21D;51606;45.000;38.612;2022-07-21T16:51:50;23.13;54.05
65040;HTU21D;51606;45.000;38.612;2022-07-21T16:54:16;23.02;54.12
65040;HTU21D;51606;45.000;38.612;2022-07-21T16:56:43;22.90;54.24
65040;HTU21D;51606;45.000;38.612;2022-07-21T16:59:10;22.78;54.37
65040;HTU21D;51606;45.000;38.612;2022-07-21T17:01:38;22.65;54.49
65040;HTU21D;51606;45.000;38.612;2022-07-21T17:04:07;22.49;54.65
65040;HTU21D;51606;45.000;38.612;2022-07-21T17:06:33;22.33;54.81
65040;HTU21D;51606;45.000;38.612;2022-07-21T17:09:00;22.19;54.97
65040;HTU21D;51606;45.000;38.612;2022-07-21T17:11:27;21.99;55.16
65040;HTU21D;51606;45.000;38.612;2022-07-21T17:13:53;21.83;55.33
65040;HTU21D;51606;45.000;38.612;2022-07-21T17:16:19;21.67;55.51
65040;HTU21D;51606;45.000;38.612;2022-07-21T17:18:47;21.50;55.71
65040;HTU21D;51606;45.000;38.612;2022-07-21T17:21:14;21.36;55.86
65040;HTU21D;51606;45.000;38.612;2022-07-21T17:23:40;21.22;55.98
65040;HTU21D;51606;45.000;38.612;2022-07-21T17:26:07;21.11;56.05
65040;HTU21D;51606;45.000;38.612;2022-07-21T17:28:34;21.05;56.07
65040;HTU21D;51606;45.000;38.612;2022-07-21T17:31:00;21.00;56.07
65040;HTU21D;51606;45.000;38.612;2022-07-21T17:33:27;20.92;56.10
65040;HTU21D;51606;45.000;38.612;2022-07-21T17:35:53;20.86;56.15
65040;HTU21D;51606;45.000;38.612;2022-07-21T17:38:20;20.80;56.16
65040;HTU21D;51606;45.000;38.612;2022-07-21T17:40:47;20.76;56.17
65040;HTU21D;51606;45.000;38.612;2022-07-21T17:43:14;20.71;56.20
65040;HTU21D;51606;45.000;38.612;2022-07-21T17:45:41;20.64;56.26
65040;HTU21D;51606;45.000;38.612;2022-07-21T17:48:09;20.53;56.39
65040;HTU21D;51606;45.000;38.612;2022-07-21T17:50:35;20.42;56.53
65040;HTU21D;51606;45.000;38.612;2022-07-21T17:53:02;20.30;56.71
65040;HTU21D;51606;45.000;38.612;2022-07-21T17:55:29;20.17;56.87
65040;HTU21D;51606;45.000;38.612;2022-07-21T17:57:55;20.05;57.01
65040;HTU21D;51606;45.000;38.612;2022-07-21T18:00:41;19.95;57.13
65040;HTU21D;51606;45.000;38.612;2022-07-21T18:03:07;19.83;57.25
65040;HTU21D;51606;45.000;38.612;2022-07-21T18:05:34;19.74;57.32
65040;HTU21D;51606;45.000;38.612;2022-07-21T18:08:00;19.67;57.41
65040;HTU21D;51606;45.000;38.612;2022-07-21T18:10:26;19.56;57.51
65040;HTU21D;51606;45.000;38.612;2022-07-21T18:12:53;19.45;57.64
65040;HTU21D;51606;45.000;38.612;2022-07-21T18:15:19;19.35;57.75
65040;HTU21D;51606;45.000;38.612;2022-07-21T18:17:46;19.24;57.89
65040;HTU21D;51606;45.000;38.612;2022-07-21T18:20:12;19.13;58.00
65040;HTU21D;51606;45.000;38.612;2022-07-21T18:22:39;18.99;58.15
65040;HTU21D;51606;45.000;38.612;2022-07-21T18:25:05;18.87;58.32
65040;HTU21D;51606;45.000;38.612;2022-07-21T18:27:32;18.74;58.41
65040;HTU21D;51606;45.000;38.612;2022-07-21T18:29:58;18.66;58.51
65040;HTU21D;51606;45.000;38.612;2022-07-21T18:32:25;18.57;58.60
65040;HTU21D;51606;45.000;38.612;2022-07-21T18:34:51;18.48;58.68
65040;HTU21D;51606;45.000;38.612;2022-07-21T18:37:21;18.38;58.77
65040;HTU21D;51606;45.000;38.612;2022-07-21T18:39:47;18.29;58.82
65040;HTU21D;51606;45.000;38.612;2022-07-21T18:42:14;18.22;58.91
65040;HTU21D;51606;45.000;38.612;2022-07-21T18:44:40;18.13;59.00
